Главная страница
METAR-TAF:

METAR-TAF

Аэропорты :

Варна, Болгария

широта: 43-12N, долгота: 027-55E, высота над уровнем моря: 41 м

Текущие метеонаблюдения

Эта сводка был подготовлена 17 минут назад, в 17:30 UTC
Ветер 2 Узел от восточно-северо-восточный
Температура 12°C
Влажность 50%
Давление 1019 hPa
Видимость 10 км и более
Нет облачности ниже 1500 м, и нет кучево-дождевой облачности

METAR: LBWN 281730Z 06002KT CAVOK 12/02 Q1019 NOSIG

Время: 20:47 (17:47 UTC)

Прогноз

Эта сводка был подготовлена 47 минут назад, в 17:00 UTC
Прогноз действительный с 28-го 18 UTC до 29-го 18 UTC
Ветер 6 Узел от западно-северо-западный
Видимость 10 км и более
Нет облачности ниже 1500 м, и нет кучево-дождевой облачности
изменения
С 29-го 11 UTC до 29-го 13 UTC
Ветер 12 Узел от восточно-юго-восточный
изменения
С 29-го 16 UTC до 29-го 18 UTC
Ветер 4 Узел переменных направлений

TAF: LBWN 281700Z 2818/2918 30006KT CAVOK BECMG 2911/2913 11012KT BECMG 2916/2918 VRB04KT

Метеонаблюдения и прогнозы для более 4000 аэропортов (сводки METAR и TAF).

Имеющиеся станции представлены на карте желтыми и красными точками.

Чтобы увидеть название станции, наведите на нее мышь.

Затем щелкните, чтобы увидеть метеонаблюдения и метеопрогнозы.

Управление картой: чтобы увеличить масштаб, щелкните зеленые кнопки с черным крестиком; чтобы уменьшить масштаб, щелкните зеленую кнопку с тире; для просмотра соседних карт щелкайте зеленые стрелки.


METAR-TAF: